Hlavní strana
METAR-TAF:

METAR-TAF

Letiště :

Akaba, Jordánsko

zeměpisná šířka: 29-38N, zeměpisná délka: 035-01E, výška: 53 m

Aktuální stav počasí

Zpráva byla vytvořena před 34 minutami, v 00:00 UTC
Severní vítr 6 kt
Teplota 17°C
Vlhkost vzduchu 45%
Tlak 1017 hPa
Viditelnost 10 km a více
Žádná oblačnost pod 1500 m, nevyskytují se cumulonimby.

METAR: OJAQ 200000Z 01006KT CAVOK 17/05 Q1017 NOSIG

Čas: 03:34 (00:34 UTC)

Předpověď počasí

Zpráva byla vytvořena před 1 hodinou a 48 minutami, v 22:46 UTC
Předpověď platná od 20 v 00 UTC do 21 v 06 UTC
Severní vítr 12 kt
Viditelnost 10 km a více
Žádná oblačnost pod 1500 m, nevyskytují se cumulonimby.
Dočasný
od 20 v 03 UTC do 20 v 18 UTC
Skoro jasno ve výšce 4000 ft

TAF: OJAQ 192246Z 2000/2106 35012KT CAVOK TEMPO 2003/2018 FEW040

Stav a předpovědi počasí z více než 4 000 letišť (zprávy METAR a TAF).

Červené a žluté tečky na mapě představují dostupné meteorologické stanice.

Když kurzor umístíte na tečku, zobrazí se název stanice.

Pak kliknutím zobrazíte stav a předpověď počasí.

Chcete-li změnit mapu, kliknutím na zelené tlačítko se znaménkem +mapu přiblížíte, kliknutím na zelené tlačítko se znaménkem – mapu oddálíte a kliknutím na zelené šipky přejdete na sousední mapy.


METAR-TAF: